Nasdaq 100

Alles was Sie über den wissen sollten: Vom aktuellen Kurs und Chart bis zur Kursentwicklung der Nasdaq 100 Werte

Nasdaq 100 Realtime

ISIN: US6311011026
Symbol: NDX | Börse:

Kurszeit: Uhr

Punkte

Punkte
Tageshoch
Tagestief

Nasdaq 100 Chart

  • 1 T
  • 1 W
  • 1 M
  • 6 M
  • YTD
  • 1 J
  • 5 J
  • Max
Loading ...

Nasdaq 100 Tops

Nasdaq 100 Flops

Eine vollständige Übersicht aller Gewinner und Verlierer des Tages, des aktuellen Jahres und weiterer Zeiträume finden Sie auf unserer Seite Nasdaq 100 Tops und Flops.

Andere Indizes

Nasdaq 100: Die Situation an der Börse aktuell

Börse Aktuell

Nasdaq 100: News & Analysen



Podcast zu Nasdaq 100



Zur Podcast-Übersicht

Nasdaq 100: Ratgeber und Tipps



Nasdaq 100 Kurs

Kurs 17.960,16
Änderung in Punkten 6.47
Änderung in % 0.04
Datum / Zeit 23.02.24 | 10:01
Börse 2,00
Öffnungskurs 17.981,39
Vortag 17.953,69
T-Hoch 17.991,39
T-Tief 17.956,78
Jahreshoch 18.039,94
Jahrestief 16.172,13
Währung Punkte
Loading ...

Aktueller Nasdaq 100 Marktbericht

Nasdaq 100 Werte: Aktuelle Kurse der Einzelwerte

Loading ...
Nasdaq 100 Aktie Vortag Kurs Hoch Tief +/- % Zeit Analysen
Regeneron Pharmaceuticals 964,89 964,92 973,00 947,85 12,08 1,27 % 22:00
Verisk Analytic CL A 237,67 240,01 241,37 238,28 2,34 0,98 % 22:00
Constellation Energy 133,39 133,38 134,06 131,65 1,98 1,51 % 22:00
O Reilly Automotive 1.054,81 1.054,79 1.058,91 1.043,20 15,02 1,44 % 22:00
Crowdstrike Holdings 310,91 310,90 313,66 297,00 18,54 6,34 % 22:00
Enphase Energy 123,44 123,43 128,48 122,73 -2,81 -2,23 % 22:00
Amazon 168,59 174,58 174,80 171,77 5,99 3,55 % 22:00
Diamondback Energy 176,73 176,71 180,36 176,39 -3,04 -1,69 % 22:00
AMD 181,86 181,73 183,83 172,00 17,44 10,62 % 22:00
Amgen 283,46 285,18 285,72 281,30 1,72 0,61 % 22:00
Applied Materials 199,73 199,72 201,55 196,67 9,39 4,93 % 22:00
Align 304,65 316,56 317,25 303,58 11,91 3,91 % 22:00
Autodesk 256,98 256,97 260,33 255,77 4,45 1,76 % 22:00
KLA-Tencor Corp. 683,77 684,15 687,69 672,85 32,23 4,94 % 22:00
Biogen 221,11 222,48 223,22 218,69 1,37 0,62 % 22:00
Exelon 36,03 36,01 36,20 35,38 -0,20 -0,55 % 22:00
Costco Wholesale 723,02 734,40 736,05 725,85 11,38 1,57 % 22:00
Cadence Design Systems 305,57 305,49 308,00 303,35 14,73 5,07 % 22:00
Cisco Systems 48,57 48,55 48,70 48,15 0,07 0,13 % 22:00
DexCom 116,39 117,50 118,00 115,36 1,11 0,95 % 22:00
Dollar Tree 145,43 144,76 146,37 143,40 -0,67 -0,46 % 22:00
Lucid Group 3,08 3,07 3,46 2,88 -0,63 -17,03 % 22:00
Electronic Arts 143,52 143,50 144,36 141,54 2,33 1,65 % 22:00
Adobe 538,52 537,57 555,55 534,56 -0,95 -0,18 % 22:00
eBay 43,80 44,28 44,65 43,24 0,48 1,10 % 22:00
Paychex 123,43 124,71 125,01 123,24 1,28 1,04 % 22:00
Meta Platforms 486,13 486,08 489,99 476,06 18,05 3,86 % 22:00
Sirius XM 4,73 4,72 4,75 4,65 0,04 0,85 % 22:00
Gilead 72,78 72,76 72,89 71,83 -0,45 -0,61 % 22:00
Charter Communication – A 287,30 297,00 297,28 284,93 9,70 3,38 % 22:00
Keurig Dr Pepper 31,60 30,37 30,96 29,99 -1,23 -3,89 % 22:00
American Electric Power 82,56 82,00 82,51 81,44 -0,56 -0,68 % 22:00
Alphabet 145,32 145,28 146,20 144,01 1,44 1,00 % 22:00
Synopsys 580,90 580,93 629,38 579,11 37,36 6,87 % 22:00
Alphabet A 144,09 144,08 145,00 142,80 1,53 1,07 % 22:00
Fortinet 65,34 66,96 67,23 65,77 1,62 2,48 % 22:00
Intel 42,98 42,95 44,68 42,53 -0,52 -1,20 % 22:00
MercadoLibre 1.817,98 1.819,24 1.825,00 1.760,35 81,47 4,69 % 22:00
Intuit 638,27 657,92 659,38 649,52 19,65 3,08 % 22:00
Zoom Video Communications 62,12 62,13 62,18 60,94 0,78 1,27 % 22:00
Intuitive Surgical 389,08 389,11 389,68 382,21 8,88 2,34 % 22:00
Ansys 340,34 340,11 352,97 338,15 11,48 3,49 % 22:00
Lululemon Athletica 443,46 455,26 457,36 447,35 11,80 2,66 % 22:00
Datadog 131,12 131,13 132,52 129,76 5,29 4,20 % 22:00
Monster Beverage 55,11 55,10 55,45 54,80 -0,04 -0,07 % 22:00
AstraZeneca ADR 64,13 64,14 64,58 63,26 -0,95 -1,46 % 22:00
Microsoft 411,65 411,56 412,83 408,57 9,38 2,33 % 22:00
CoStar Group 83,98 82,47 86,75 81,62 -1,51 -1,80 % 22:00
Micron Technology 81,49 85,91 86,31 83,88 4,42 5,42 % 22:00
Mondelez 73,80 74,13 74,35 73,00 0,33 0,45 % 22:00
Netflix 588,47 588,25 590,85 578,89 14,90 2,60 % 22:00
Paccar 108,67 110,52 110,67 108,98 1,85 1,70 % 22:00
NVIDIA 674,72 785,38 785,75 742,20 110,66 16,40 % 22:00
PayPal 57,48 58,35 58,64 57,37 0,87 1,51 % 22:00
NXP 235,32 239,50 242,40 237,11 4,18 1,78 % 22:00
Ross Stores 146,90 146,85 146,92 144,90 2,03 1,40 % 22:00
Booking Holdings 3.741,13 3.901,99 3.918,00 3.774,87 160,86 4,30 % 22:00
T-Mobile US 163,55 163,58 164,50 162,79 -0,47 -0,29 % 22:00
PepsiCo 168,83 168,25 168,83 166,10 -0,58 -0,34 % 22:00
Walgreens Boots Alliance 21,75 21,57 21,65 21,20 -0,18 -0,83 % 22:00
Qualcomm 154,75 154,74 155,51 152,32 2,73 1,80 % 22:00
Cintas Corp. 618,66 627,10 628,61 622,73 8,44 1,36 % 22:00
Starbucks 95,78 95,76 96,08 94,14 0,74 0,78 % 22:00
Microchip Technology Inc. 83,48 83,90 84,65 82,24 0,42 0,50 % 22:00
Tesla 197,41 197,36 198,32 191,36 2,59 1,33 % 22:00
Baker Hughes 29,20 29,18 29,47 29,01 -0,16 -0,55 % 22:00
Texas Instruments 164,08 165,43 166,12 163,49 1,35 0,82 % 22:00
Honeywell International 199,53 200,81 201,56 198,61 1,28 0,64 % 22:00
Vertex Pharma 426,78 426,79 429,81 419,85 7,16 1,71 % 22:00
Xcel Energy 59,81 59,33 59,51 58,55 -0,48 -0,80 % 22:00
Broadcom 1.227,45 1.304,90 1.310,98 1.276,47 77,45 6,31 % 22:00
Palo Alto Networks 261,97 267,82 276,81 265,00 5,85 2,23 % 22:00
Analog Devices 193,72 191,91 197,34 189,04 -1,81 -0,93 % 22:00
ASML Holding NV-NY 908,21 951,85 959,46 941,20 43,64 4,81 % 22:00
Automatic Data Processing 254,76 254,74 255,75 253,51 0,82 0,32 % 22:00
IDEXX Laboratories 571,31 571,08 574,74 558,51 16,31 2,94 % 22:00
CSX 37,10 37,89 38,03 37,09 0,79 2,13 % 22:00
Workday 298,96 306,62 308,98 303,56 7,66 2,56 % 22:00
Cognizant Technology Solutions 79,46 79,43 79,68 78,12 1,96 2,53 % 22:00
Moderna 87,59 99,44 101,73 91,06 11,85 13,53 % 22:00
Comcast 41,85 41,91 41,99 41,40 0,06 0,14 % 22:00
Pinduoduo 131,63 131,62 133,16 130,66 1,86 1,43 % 22:00
Warner Bros. Discovery 9,57 9,56 9,67 9,51 -0,01 -0,10 % 22:00
Copart 49,41 49,42 49,90 49,27 0,53 1,08 % 22:00
Fastenal 72,06 72,05 72,28 70,75 1,72 2,45 % 22:00
Marvell Technology 69,87 69,82 70,40 68,23 4,30 6,56 % 22:00
Fiserv 147,64 150,11 150,44 148,57 2,47 1,67 % 22:00
Airbnb 155,26 155,31 155,70 150,27 6,07 4,07 % 22:00
Illumina 136,41 135,55 137,41 134,15 -0,86 -0,63 % 22:00
Zscaler 213,92 226,15 229,34 218,91 12,23 5,72 % 22:00
JD.com ADR 23,96 23,97 24,16 23,66 0,18 0,76 % 22:00
Rivian 15,39 11,45 12,25 11,06 -3,94 -25,60 % 22:00
The Kraft Heinz 36,39 36,41 36,48 35,91 0,02 0,05 % 22:00
Atlassian 204,11 205,43 210,38 204,20 1,32 0,65 % 22:00
Lam Research 944,36 944,35 949,33 925,27 42,42 4,70 % 22:00
Old Dominion Freight Line 424,42 436,93 437,46 428,78 12,51 2,95 % 22:00
Marriott International 249,31 249,33 250,43 244,78 5,98 2,46 % 22:00
GLOBALFOUNDRIES 53,39 54,11 54,77 52,90 0,72 1,35 % 22:00
Apple 182,32 184,37 184,96 182,46 2,05 1,12 % 22:00

Der US-Index Nasdaq 100 umfasst die 100 größten US-Unternehmen, die im Börsensegment Nasdaq gelistet sind und nicht zur Finanzbranche gehören. Anders als an der Nasdaq insgesamt, die durch den Nasdaq Composite-Index abgebildet wird, finden sich in diesem Index also fast ausschließlich Technologieunternehmen. Fast, weil der Ausschluss von Unternehmen der Finanzbranche in diesem Index nicht ausschließt, das sich mancher „Ausreißer“ aus anderen Branchen in diesem Blue Chip-Index der Nasdaq wiederfindet, so z.B. die Fluglinie American Airlines oder der Nahrungsmittelkonzern Mondelez.

Das Besondere der Nasdaq ist, dass sie eine reine „Computerbörse“ ist, d.h. es gibt hier keinen Parketthandel wie an der New York Stock Exchange. Das garantiert einen schnelleren und oft auch zuverlässigeren Handel. Der Nasdaq 100 wird seit 1985 berechnet, die Nasdaq selbst wurde aber schon 1971 gegründet. Sie war damals die erste „Computer-Börse“, was sich auch in ihrem Namen wiederfindet: NASDAQ steht für National Association of Securities Dealers Automated Quotations. Noch bis in die Neunzigerjahre wurde diese Börse von vielen mit Misstrauen gesehen, weil man das Gefühl hatte, dass Computer, die die Kurse berechneten und den Handel abwickelten, leichter zu manipulieren seien als der Parketthandel der New York Stock Exchange. Diese Skepsis verschwand aber mit den Jahren, da die befürchteten Skandale ausblieben, die Systeme zuverlässig liefen und immer mehr große, beim Publikum beliebte Unternehmen an der Nasdaq notiert wurden.

Der Nasdaq 100 ist – genau wie der Dow Jones –  ein reiner Kursindex, das heißt, er berechnet sich ausschließlich aus den Kursveränderungen der in ihm enthaltenen Aktien. Anders als beim DAX heute werden Dividenden nicht in die Berechnung einbezogen. Einmal jährlich wird die Zusammensetzung des Nasdaq 100 vom Betreiber, der Nasdaq OMX Group, überprüft, die Gewichtung der einzelnen Aktien im Index erfährt viermal jährlich eine Überprüfung.